createdAt,value
2022-08-09T00:01:19.434Z,2.72
2022-08-09T00:04:10.779Z,2.62
2022-08-09T00:06:36.581Z,3.53
2022-08-09T00:09:04.362Z,2.60
2022-08-09T00:12:03.920Z,3.10
2022-08-09T00:14:36.359Z,2.75
2022-08-09T00:17:06.424Z,2.62
2022-08-09T00:19:34.720Z,3.42
2022-08-09T00:22:04.387Z,2.57
2022-08-09T00:24:32.656Z,2.67
2022-08-09T00:27:01.144Z,2.40
2022-08-09T00:30:09.823Z,2.30
2022-08-09T00:32:26.892Z,2.40
2022-08-09T00:34:56.092Z,1.93
2022-08-09T00:37:23.945Z,1.62
2022-08-09T00:40:09.691Z,2.53
2022-08-09T00:44:10.126Z,2.15
2022-08-09T00:45:28.171Z,2.58
2022-08-09T00:47:55.933Z,2.13
2022-08-09T00:50:24.357Z,1.55
2022-08-09T00:52:52.783Z,1.90
2022-08-09T00:56:04.084Z,1.70
2022-08-09T00:58:09.797Z,2.28
2022-08-09T01:00:43.861Z,2.00
2022-08-09T01:03:17.703Z,1.83
2022-08-09T01:05:57.668Z,2.00
2022-08-09T01:08:28.236Z,1.75
2022-08-09T01:11:10.032Z,2.05
2022-08-09T01:13:59.213Z,2.00
2022-08-09T01:16:33.482Z,2.10
2022-08-09T01:19:39.961Z,1.75
2022-08-09T01:22:16.665Z,2.22
2022-08-09T01:25:02.758Z,1.70
2022-08-09T01:27:31.740Z,1.80
2022-08-09T01:30:04.670Z,2.40
2022-08-09T01:32:38.617Z,2.30
2022-08-09T01:35:38.096Z,2.17
2022-08-09T01:38:15.198Z,2.20
2022-08-09T01:41:06.635Z,2.33
2022-08-09T01:43:42.137Z,2.17
2022-08-09T01:46:26.961Z,2.20
2022-08-09T01:48:59.944Z,1.98
2022-08-09T01:51:32.617Z,2.40
2022-08-09T01:54:02.940Z,2.10
2022-08-09T01:56:33.938Z,2.50
2022-08-09T01:59:05.726Z,2.72
2022-08-09T02:01:59.598Z,2.20
2022-08-09T02:04:23.141Z,2.75
2022-08-09T02:07:18.074Z,2.47
2022-08-09T02:10:04.400Z,2.30
2022-08-09T02:12:35.109Z,2.28
2022-08-09T02:15:06.497Z,2.50
2022-08-09T02:18:09.567Z,2.25
2022-08-09T02:20:32.942Z,2.00
2022-08-09T02:23:13.848Z,2.47
2022-08-09T02:25:52.536Z,2.45
2022-08-09T02:28:24.049Z,2.75
2022-08-09T02:30:55.441Z,2.58
2022-08-09T02:33:37.998Z,1.87
2022-08-09T02:36:16.088Z,2.30
2022-08-09T02:38:50.144Z,2.50
2022-08-09T02:41:24.140Z,2.90
2022-08-09T02:43:55.443Z,2.90
2022-08-09T02:46:28.477Z,2.73
2022-08-09T02:49:03.061Z,2.50
2022-08-09T02:51:40.136Z,2.28
2022-08-09T02:54:12.381Z,2.70
2022-08-09T02:56:51.118Z,2.55
2022-08-09T02:59:26.001Z,2.50
2022-08-09T03:02:12.113Z,2.92
2022-08-09T03:04:45.686Z,2.67
2022-08-09T03:07:14.632Z,2.55
2022-08-09T03:09:43.771Z,2.33
2022-08-09T03:12:23.936Z,2.13
2022-08-09T03:14:52.660Z,2.50
2022-08-09T03:17:26.576Z,3.00
2022-08-09T03:20:03.017Z,2.65
2022-08-09T03:22:41.961Z,2.90
2022-08-09T03:25:57.029Z,2.27
2022-08-09T03:28:02.257Z,2.70
2022-08-09T03:30:33.647Z,2.53
2022-08-09T03:33:17.944Z,3.12
2022-08-09T03:36:14.056Z,2.67
2022-08-09T03:38:41.859Z,2.63
2022-08-09T03:41:14.996Z,3.15
2022-08-09T03:44:04.019Z,3.12
2022-08-09T03:46:32.439Z,2.35
2022-08-09T03:49:04.004Z,3.25
2022-08-09T03:51:55.737Z,2.87
2022-08-09T03:54:30.940Z,3.10
2022-08-09T03:57:01.446Z,3.00
2022-08-09T03:59:52.906Z,3.15
2022-08-09T04:02:26.096Z,4.07
2022-08-09T04:05:01.215Z,2.73
2022-08-09T04:07:53.264Z,4.00
2022-08-09T04:10:29.595Z,3.72
2022-08-09T04:13:01.042Z,3.25
2022-08-09T04:15:42.643Z,3.55
2022-08-09T04:18:21.271Z,3.20
2022-08-09T04:20:50.066Z,3.40
2022-08-09T04:23:23.466Z,3.12
2022-08-09T04:25:55.292Z,3.55
2022-08-09T04:28:30.637Z,3.25
2022-08-09T04:31:09.018Z,3.80
2022-08-09T04:33:53.082Z,3.90
2022-08-09T04:36:29.953Z,3.20
2022-08-09T04:39:00.649Z,4.25
2022-08-09T04:41:33.077Z,4.07
2022-08-09T04:44:06.491Z,4.00
2022-08-09T04:46:58.834Z,4.03
2022-08-09T04:49:53.184Z,3.92
2022-08-09T04:52:26.193Z,4.03
2022-08-09T04:55:01.500Z,4.18
2022-08-09T04:57:54.346Z,3.80
2022-08-09T05:00:18.169Z,4.18
2022-08-09T05:02:51.802Z,3.90
2022-08-09T05:05:32.290Z,4.68
2022-08-09T05:08:09.441Z,4.40
2022-08-09T05:10:41.646Z,4.47
2022-08-09T05:13:10.897Z,4.75
2022-08-09T05:15:42.978Z,5.05
2022-08-09T05:18:50.852Z,3.62
2022-08-09T05:21:13.341Z,4.07
2022-08-09T05:24:00.126Z,4.80
2022-08-09T05:26:45.461Z,5.18
2022-08-09T05:29:21.854Z,5.60
2022-08-09T05:31:56.961Z,5.00
2022-08-09T05:34:31.747Z,5.40
2022-08-09T05:37:04.963Z,4.73
2022-08-09T05:39:42.602Z,4.95
2022-08-09T05:42:17.361Z,3.95
2022-08-09T05:44:53.712Z,3.78
2022-08-09T05:47:23.352Z,4.87
2022-08-09T05:50:23.257Z,2.97
2022-08-09T05:52:42.297Z,4.75
2022-08-09T05:55:20.563Z,4.95
2022-08-09T05:57:51.356Z,4.62
2022-08-09T06:00:26.545Z,4.80
2022-08-09T06:03:00.880Z,5.00
2022-08-09T06:05:57.690Z,5.18
2022-08-09T06:08:24.787Z,5.25
2022-08-09T06:10:54.976Z,4.75
2022-08-09T06:13:23.032Z,4.97
2022-08-09T06:15:51.342Z,5.50
2022-08-09T06:18:25.395Z,5.37
2022-08-09T06:20:57.813Z,5.12
2022-08-09T06:23:57.223Z,5.03
2022-08-09T06:26:20.786Z,6.40
2022-08-09T06:29:00.072Z,5.90
2022-08-09T06:31:39.765Z,5.82
2022-08-09T06:34:22.598Z,5.55
2022-08-09T06:36:57.448Z,5.45
2022-08-09T06:39:57.975Z,5.22
2022-08-09T06:42:24.767Z,6.07
2022-08-09T06:44:57.357Z,5.28
2022-08-09T06:47:25.424Z,6.00
2022-08-09T06:50:14.886Z,5.37
2022-08-09T06:52:46.836Z,6.40
2022-08-09T06:55:16.954Z,5.87
2022-08-09T06:58:02.585Z,6.15
2022-08-09T07:00:54.686Z,6.28
2022-08-09T07:03:28.556Z,7.07
2022-08-09T07:06:03.965Z,5.50
2022-08-09T07:08:34.666Z,5.63
2022-08-09T07:11:04.223Z,6.47
2022-08-09T07:13:44.969Z,5.97
2022-08-09T07:16:43.423Z,4.87
2022-08-09T07:19:15.662Z,5.40
2022-08-09T07:21:57.148Z,5.97
2022-08-09T07:24:32.484Z,5.35
2022-08-09T07:27:27.239Z,5.87
2022-08-09T07:30:00.277Z,5.20
2022-08-09T07:32:32.196Z,5.93
2022-08-09T07:35:10.867Z,5.20
2022-08-09T07:37:43.802Z,6.40
2022-08-09T07:40:17.246Z,5.80
2022-08-09T07:42:54.340Z,6.35
2022-08-09T07:45:37.513Z,5.32
2022-08-09T07:48:25.621Z,5.27
2022-08-09T07:51:09.246Z,5.62
2022-08-09T07:54:05.445Z,5.28
2022-08-09T07:56:49.766Z,5.00
2022-08-09T07:59:25.346Z,5.07
2022-08-09T08:01:55.815Z,5.77
2022-08-09T08:04:31.373Z,5.40
2022-08-09T08:07:14.933Z,6.80
2022-08-09T08:10:08.363Z,4.62
2022-08-09T08:12:45.562Z,4.62
2022-08-09T08:15:23.103Z,4.80
2022-08-09T08:17:58.436Z,4.68
2022-08-09T08:20:32.437Z,5.37
2022-08-09T08:23:06.686Z,4.57
2022-08-09T08:25:48.221Z,5.32
2022-08-09T08:28:32.145Z,4.47
2022-08-09T08:31:10.674Z,4.62
2022-08-09T08:33:53.081Z,4.35
2022-08-09T08:36:29.721Z,5.05
2022-08-09T08:38:59.699Z,4.40
2022-08-09T08:41:50.291Z,4.03
2022-08-09T08:44:27.045Z,4.75
2022-08-09T08:47:04.806Z,4.87
2022-08-09T08:49:47.130Z,4.60
2022-08-09T08:52:57.457Z,4.70
2022-08-09T08:55:19.131Z,3.63
2022-08-09T08:57:56.445Z,3.87
2022-08-09T09:00:30.559Z,4.10
2022-08-09T09:03:11.465Z,3.37
2022-08-09T09:06:01.199Z,3.90
2022-08-09T09:08:40.471Z,3.07
2022-08-09T09:11:17.156Z,4.07
2022-08-09T09:13:57.274Z,3.87
2022-08-09T09:16:32.176Z,3.40
2022-08-09T09:19:37.297Z,3.85
2022-08-09T09:22:11.229Z,3.10
2022-08-09T09:24:43.958Z,3.83
2022-08-09T09:27:22.083Z,3.50
2022-08-09T09:30:28.807Z,3.42
2022-08-09T09:33:16.412Z,3.20
2022-08-09T09:36:00.578Z,2.73
2022-08-09T09:38:48.491Z,3.22
2022-08-09T09:41:32.574Z,3.50
2022-08-09T09:44:12.925Z,3.67
2022-08-09T09:46:51.274Z,3.30
2022-08-09T09:49:31.716Z,3.50
2022-08-09T09:52:37.028Z,3.50
2022-08-09T09:55:24.191Z,3.22
2022-08-09T09:58:16.939Z,3.28
2022-08-09T10:00:55.241Z,3.40
2022-08-09T10:04:02.358Z,3.13
2022-08-09T10:06:42.613Z,3.67
2022-08-09T10:09:22.665Z,3.35
2022-08-09T10:12:11.859Z,2.90
2022-08-09T10:14:43.994Z,3.30
2022-08-09T10:17:39.820Z,3.53
2022-08-09T10:20:26.938Z,2.50
2022-08-09T10:23:17.268Z,3.10
2022-08-09T10:26:07.625Z,3.03
2022-08-09T10:28:36.700Z,3.20
2022-08-09T10:34:08.422Z,3.00
2022-08-09T10:36:40.014Z,3.08
2022-08-09T10:39:13.964Z,2.97
2022-08-09T10:41:47.690Z,2.97
2022-08-09T10:44:24.810Z,2.73
2022-08-09T10:48:12.425Z,3.10
2022-08-09T10:50:30.703Z,2.80
2022-08-09T10:53:10.036Z,2.72
2022-08-09T10:55:55.244Z,2.72
2022-08-09T10:58:34.809Z,2.97
2022-08-09T11:03:02.961Z,2.58
2022-08-09T11:04:19.923Z,2.58
2022-08-09T11:07:01.208Z,3.47
2022-08-09T11:09:41.446Z,3.45
2022-08-09T11:12:17.618Z,3.70
2022-08-09T11:14:57.321Z,3.60
2022-08-09T11:17:25.146Z,3.70
2022-08-09T11:20:22.330Z,3.42
2022-08-09T11:22:56.944Z,3.85
2022-08-09T11:25:45.427Z,3.33
2022-08-09T11:28:34.693Z,4.62
2022-08-09T11:31:49.488Z,3.58
2022-08-09T11:34:24.784Z,3.28
2022-08-09T11:36:53.079Z,4.10
2022-08-09T11:39:21.062Z,3.43
2022-08-09T11:41:49.650Z,3.30
2022-08-09T11:44:18.295Z,3.80
2022-08-09T11:46:54.917Z,3.22
2022-08-09T11:51:19.127Z,3.17
2022-08-09T11:53:57.891Z,3.37
2022-08-09T11:55:53.706Z,3.55
2022-08-09T11:58:32.925Z,3.80
2022-08-09T12:01:08.615Z,3.50
2022-08-09T12:03:56.181Z,3.40
2022-08-09T12:06:32.668Z,3.43
2022-08-09T12:09:15.305Z,3.78
2022-08-09T12:12:05.967Z,3.53
2022-08-09T12:15:03.790Z,3.03
2022-08-09T12:17:42.088Z,3.15
2022-08-09T12:20:16.531Z,3.57
2022-08-09T12:22:57.205Z,3.58
2022-08-09T12:25:36.264Z,3.22
2022-08-09T12:29:10.731Z,3.53
2022-08-09T12:30:57.723Z,3.28
2022-08-09T12:33:26.475Z,3.50
2022-08-09T12:36:27.495Z,3.22
2022-08-09T12:38:59.776Z,3.58
2022-08-09T12:41:39.244Z,2.97
2022-08-09T12:44:10.189Z,3.40
2022-08-09T12:46:48.846Z,3.20
2022-08-09T12:49:18.364Z,3.28
2022-08-09T12:52:02.406Z,3.08
2022-08-09T12:56:10.959Z,3.05
2022-08-09T12:57:43.129Z,3.05
2022-08-09T13:00:25.723Z,3.40
2022-08-09T13:03:04.965Z,3.03
2022-08-09T13:05:51.512Z,2.72
2022-08-09T13:08:40.506Z,3.05
2022-08-09T13:11:13.385Z,3.42
2022-08-09T13:14:37.381Z,3.10
2022-08-09T13:16:54.701Z,3.05
2022-08-09T13:20:08.834Z,3.15
2022-08-09T13:22:36.729Z,3.15
2022-08-09T13:25:12.203Z,3.45
2022-08-09T13:27:54.498Z,2.77
2022-08-09T13:30:50.035Z,3.03
2022-08-09T13:33:22.355Z,3.00
2022-08-09T13:36:39.507Z,2.75
2022-08-09T13:38:56.022Z,3.08
2022-08-09T13:41:57.132Z,3.07
2022-08-09T13:44:16.901Z,2.80
2022-08-09T13:47:29.791Z,2.90
2022-08-09T13:49:38.224Z,2.83
2022-08-09T13:52:24.928Z,3.28
2022-08-09T13:54:59.737Z,3.17
2022-08-09T13:57:36.656Z,3.33
2022-08-09T14:00:12.823Z,3.03
2022-08-09T14:03:02.828Z,3.08
2022-08-09T14:06:00.332Z,3.42
2022-08-09T14:08:18.383Z,2.73
2022-08-09T14:10:52.224Z,2.70
2022-08-09T14:14:15.405Z,2.90
2022-08-09T14:16:18.344Z,3.42
2022-08-09T14:18:49.414Z,2.97
2022-08-09T14:21:22.368Z,2.67
2022-08-09T14:23:55.580Z,2.67
2022-08-09T14:26:31.783Z,3.55
2022-08-09T14:29:03.733Z,2.78
2022-08-09T14:31:52.054Z,2.78
2022-08-09T14:34:31.113Z,3.00
2022-08-09T14:37:02.224Z,3.03
2022-08-09T14:39:40.407Z,3.83
2022-08-09T14:42:29.109Z,3.05
2022-08-09T14:46:40.066Z,3.30
2022-08-09T14:47:58.755Z,2.57
2022-08-09T14:50:30.545Z,3.17
2022-08-09T14:53:02.477Z,2.83
2022-08-09T14:55:32.577Z,3.00
2022-08-09T14:58:05.120Z,2.90
2022-08-09T15:00:36.259Z,3.03
2022-08-09T15:03:08.958Z,3.20
2022-08-09T15:05:39.541Z,2.50
2022-08-09T15:08:10.472Z,2.80
2022-08-09T15:10:38.687Z,2.87
2022-08-09T15:13:08.926Z,2.53
2022-08-09T15:15:39.296Z,2.83
2022-08-09T15:18:12.415Z,2.95
2022-08-09T15:21:58.696Z,3.10
2022-08-09T15:24:01.830Z,2.90
2022-08-09T15:26:31.438Z,2.93
2022-08-09T15:29:02.423Z,3.08
2022-08-09T15:31:41.559Z,2.80
2022-08-09T15:34:32.420Z,3.17
2022-08-09T15:36:58.498Z,3.08
2022-08-09T15:39:34.569Z,3.10
2022-08-09T15:42:15.664Z,3.22
2022-08-09T15:44:46.981Z,3.10
2022-08-09T15:47:22.560Z,3.30
2022-08-09T15:50:03.593Z,3.30
2022-08-09T15:52:36.065Z,3.37
2022-08-09T15:55:06.234Z,2.80
2022-08-09T15:57:44.469Z,3.00
2022-08-09T16:00:25.171Z,3.08
2022-08-09T16:02:56.454Z,3.35
2022-08-09T16:05:47.739Z,2.87
2022-08-09T16:08:29.727Z,2.90
2022-08-09T16:11:01.593Z,3.10
2022-08-09T16:14:02.897Z,2.80
2022-08-09T16:16:19.063Z,3.20
2022-08-09T16:18:47.803Z,2.67
2022-08-09T16:21:17.225Z,2.80
2022-08-09T16:23:50.685Z,2.75
2022-08-09T16:26:34.940Z,2.47
2022-08-09T16:29:11.434Z,2.42
2022-08-09T16:32:18.754Z,2.67
2022-08-09T16:34:29.738Z,3.15
2022-08-09T16:37:17.705Z,2.97
2022-08-09T16:39:54.464Z,2.45
2022-08-09T16:42:33.530Z,2.40
2022-08-09T16:45:01.060Z,2.53
2022-08-09T16:48:42.733Z,2.50
2022-08-09T16:50:29.056Z,2.87
2022-08-09T16:53:01.396Z,2.92
2022-08-09T16:55:31.551Z,2.58
2022-08-09T16:58:17.917Z,2.60
2022-08-09T17:00:46.624Z,3.00
2022-08-09T17:03:21.987Z,2.90
2022-08-09T17:06:07.196Z,3.17
2022-08-09T17:08:46.289Z,3.17
2022-08-09T17:11:40.609Z,3.13
2022-08-09T17:14:25.511Z,2.62
2022-08-09T17:16:59.798Z,2.90
2022-08-09T17:20:05.123Z,2.70
2022-08-09T17:22:24.812Z,3.00
2022-08-09T17:25:03.829Z,2.63
2022-08-09T17:27:34.008Z,2.80
2022-08-09T17:30:06.987Z,2.75
2022-08-09T17:32:44.187Z,2.72
2022-08-09T17:35:14.110Z,2.95
2022-08-09T17:38:13.107Z,3.03
2022-08-09T17:40:33.398Z,2.85
2022-08-09T17:43:32.538Z,2.95
2022-08-09T17:46:02.968Z,2.90
2022-08-09T17:48:38.983Z,2.90
2022-08-09T17:51:17.093Z,2.70
2022-08-09T17:53:54.949Z,2.67
2022-08-09T17:56:27.297Z,2.78
2022-08-09T17:59:03.142Z,2.87
2022-08-09T18:01:58.205Z,3.30
2022-08-09T18:04:24.787Z,2.53
2022-08-09T18:06:55.778Z,2.80
2022-08-09T18:09:41.108Z,2.85
2022-08-09T18:12:19.751Z,2.60
2022-08-09T18:14:54.560Z,2.70
2022-08-09T18:18:02.187Z,2.70
2022-08-09T18:20:57.361Z,2.40
2022-08-09T18:23:05.731Z,2.75
2022-08-09T18:25:50.362Z,2.50
2022-08-09T18:30:34.485Z,3.08
2022-08-09T18:31:25.156Z,2.80
2022-08-09T18:34:05.607Z,2.83
2022-08-09T18:36:36.201Z,2.90
2022-08-09T18:39:05.570Z,2.87
2022-08-09T18:41:34.739Z,2.53
2022-08-09T18:44:11.356Z,2.50
2022-08-09T18:46:47.376Z,2.78
2022-08-09T18:49:19.501Z,2.87
2022-08-09T18:51:55.296Z,2.70
2022-08-09T18:54:28.621Z,3.05
2022-08-09T18:57:05.732Z,3.30
2022-08-09T18:59:48.563Z,2.90
2022-08-09T19:02:18.229Z,2.62
2022-08-09T19:04:47.753Z,2.45
2022-08-09T19:07:28.609Z,2.45
2022-08-09T19:10:14.324Z,2.70
2022-08-09T19:12:53.071Z,2.47
2022-08-09T19:15:33.887Z,2.67
2022-08-09T19:18:05.280Z,2.30
2022-08-09T19:20:39.212Z,2.30
2022-08-09T19:23:08.420Z,2.00
2022-08-09T19:26:01.219Z,1.80
2022-08-09T19:28:33.712Z,2.03
2022-08-09T19:31:07.658Z,1.85
2022-08-09T19:33:36.788Z,1.67
2022-08-09T19:36:05.162Z,2.23
2022-08-09T19:38:40.079Z,2.05
2022-08-09T19:41:07.913Z,1.40
2022-08-09T19:44:00.941Z,1.30
2022-08-09T19:46:34.237Z,1.48
2022-08-09T19:50:07.438Z,1.03
2022-08-09T19:51:56.106Z,1.27
2022-08-09T19:54:25.618Z,1.27
2022-08-09T19:56:54.912Z,1.25
2022-08-09T19:59:58.239Z,1.15
2022-08-09T20:04:12.445Z,1.40
2022-08-09T20:05:01.622Z,1.40
2022-08-09T20:07:56.852Z,1.62
2022-08-09T20:10:22.379Z,0.98
2022-08-09T20:12:55.704Z,1.08
2022-08-09T20:16:34.005Z,1.07
2022-08-09T20:18:12.065Z,1.20
2022-08-09T20:20:40.237Z,1.42
2022-08-09T20:23:08.964Z,1.20
2022-08-09T20:25:51.426Z,1.10
2022-08-09T20:28:34.508Z,1.00
2022-08-09T20:31:15.422Z,1.15
2022-08-09T20:33:44.052Z,0.90
2022-08-09T20:36:12.994Z,0.98
2022-08-09T20:41:37.172Z,1.03
2022-08-09T20:44:10.026Z,1.15
2022-08-09T20:46:42.663Z,1.10
2022-08-09T20:49:16.020Z,1.30
2022-08-09T20:51:50.236Z,1.00
2022-08-09T20:54:18.423Z,1.17
2022-08-09T20:56:49.638Z,0.88
2022-08-09T20:59:50.096Z,0.90
2022-08-09T21:02:18.430Z,0.60
2022-08-09T21:05:50.851Z,0.90
2022-08-09T21:07:38.702Z,0.83
2022-08-09T21:10:11.608Z,0.90
2022-08-09T21:12:39.561Z,0.75
2022-08-09T21:15:12.628Z,0.98
2022-08-09T21:18:21.643Z,1.00
2022-08-09T21:20:35.300Z,1.00
2022-08-09T21:23:04.198Z,0.80
2022-08-09T21:25:53.841Z,0.70
2022-08-09T21:28:34.172Z,0.65
2022-08-09T21:31:18.146Z,0.90
2022-08-09T21:33:50.944Z,1.10
2022-08-09T21:36:20.732Z,0.73
2022-08-09T21:38:58.050Z,0.80
2022-08-09T21:42:04.436Z,0.77
2022-08-09T21:44:33.250Z,1.20
2022-08-09T21:47:04.718Z,0.97
2022-08-09T21:49:39.380Z,0.90
2022-08-09T21:52:14.756Z,0.80
2022-08-09T21:55:02.769Z,0.82
2022-08-09T21:57:38.249Z,1.10
2022-08-09T22:00:12.738Z,0.67
2022-08-09T22:02:43.080Z,0.80
2022-08-09T22:05:22.251Z,1.20
2022-08-09T22:07:53.339Z,0.80
2022-08-09T22:10:23.839Z,0.90
2022-08-09T22:12:52.328Z,0.90
2022-08-09T22:15:20.631Z,0.80
2022-08-09T22:17:48.653Z,0.98
2022-08-09T22:20:27.216Z,0.90
2022-08-09T22:22:55.431Z,0.90
2022-08-09T22:26:05.422Z,0.77
2022-08-09T22:28:11.217Z,1.02
2022-08-09T22:30:41.867Z,0.90
2022-08-09T22:33:17.211Z,1.00
2022-08-09T22:36:00.900Z,0.77
2022-08-09T22:38:31.511Z,0.87
2022-08-09T22:40:59.011Z,0.80
2022-08-09T22:44:03.263Z,1.23
2022-08-09T22:48:13.477Z,0.90
2022-08-09T22:49:09.590Z,0.80
2022-08-09T22:51:39.594Z,0.90
2022-08-09T22:54:21.403Z,0.80
2022-08-09T22:56:50.766Z,0.75
2022-08-09T22:59:58.189Z,0.80
2022-08-09T23:02:10.449Z,0.90
2022-08-09T23:04:53.341Z,0.83
2022-08-09T23:08:21.275Z,0.73
2022-08-09T23:10:32.574Z,0.85
2022-08-09T23:13:00.382Z,0.80
2022-08-09T23:15:29.648Z,0.70
2022-08-09T23:17:57.401Z,1.07
2022-08-09T23:20:26.180Z,0.90
2022-08-09T23:22:54.103Z,1.05
2022-08-09T23:25:21.748Z,0.85
2022-08-09T23:28:14.327Z,0.93
2022-08-09T23:30:37.007Z,0.77
2022-08-09T23:33:04.726Z,0.85
2022-08-09T23:36:05.874Z,0.65
2022-08-09T23:38:20.506Z,0.93
2022-08-09T23:40:51.746Z,0.82
2022-08-09T23:43:19.436Z,1.03
2022-08-09T23:45:48.008Z,0.95
2022-08-09T23:48:15.685Z,0.90
2022-08-09T23:50:43.256Z,1.10
2022-08-09T23:53:11.058Z,0.75
2022-08-09T23:55:39.957Z,0.70
2022-08-09T23:58:24.297Z,0.80
